Avisos AEMET Campiña SevillanaSin Avisos+ INFO
Sevilla, Andalucía, España
Sprache: de English Français Deutsch Italiano Português Español
 

Nearby METAR Reports

 

LEZL - Sevilla, Spain
Distance from station: ONO 8km
aktuell: 06/02/2023 23:00
klar
klar
 Wind von SSW
Wind: SSW 6 km/h
Temperatur: 11°C
Taupunkt: 9°C
Luftfeuchte: 88%
Luftdruck: 1019 hPa
Zusammenfassung: klar
Visibility: greater than 10 km
2023/02/06 22:00 LEZL 062200Z 20003KT 170V230 CAVOK 11/09 Q1019 NOSIG
LEMO - Morón, Spain
Distance from station: SO 43km
aktuell: 06/02/2023 23:00
klar
klar
 Wind von S
Wind: S 6 km/h
Temperatur: 7°C
Taupunkt: 5°C
Luftfeuchte: 87%
Luftdruck: 1019 hPa
Zusammenfassung: klar
Visibility: greater than 10 km
2023/02/06 22:00 LEMO 062200Z 19003KT CAVOK 07/05 Q1019 NOSIG
LEJR - Jeréz, Spain
Distance from station: S 71km
aktuell: 06/02/2023 23:00
klar
klar
 Wind von S
Wind: S 9 km/h
Temperatur: 11°C
Taupunkt: 9°C
Luftfeuchte: 88%
Luftdruck: 1019 hPa
Zusammenfassung: klar
Visibility: greater than 10 km
2023/02/06 22:00 LEJR 062200Z 17005KT 140V200 CAVOK 11/09 Q1019
 
LERT - Rota, Spain
Distance from station: SSW 89km
aktuell: 06/02/2023 23:00
teilweise bewölkt
teilweise bewölkt
 Wind von SO
Wind: SO 9 km/h
Temperatur: 12°C
Taupunkt: 11°C
Luftfeuchte: 94%
Luftdruck: 1019 hPa
Clouds: teilweise bewölkt
Visibility: 10 km
Cloud details: teilweise bewölkt 457 m
2023/02/06 22:00 LERT 062200Z 14005KT 9999 SCT015 12/11 Q1019 NOSIG
LEMG - Málaga, Spain
Distance from station: OSO 157km
aktuell: 06/02/2023 23:00
stark bewölkt
stark bewölkt
 Wind von SO
Wind: SO 17 km/h
Temperatur: 14°C
Taupunkt: 9°C
Luftfeuchte: 72%
Luftdruck: 1021 hPa
Clouds: stark bewölkt
Visibility: 10 km
Cloud details: Few Clouds 671 m
stark bewölkt 1067 m
2023/02/06 22:00 LEMG 062200Z 13009KT 9999 FEW022 BKN035 14/09 Q1021 NOSIG
LEBA - Córdoba, Spain
Distance from station: ONO 115km
aktuell: 06/02/2023 23:00
klar
klar
 Wind von ONO
Wind: ONO 6 km/h
Temperatur: 8°C
Taupunkt: 3°C
Luftfeuchte: 71%
Luftdruck: 1020 hPa
Zusammenfassung: klar
Visibility: greater than 10 km
2023/02/06 22:00 LEBA 062200Z AUTO 06003KT 020V180 CAVOK 08/03 Q1020
 
LEGR - Granada, Spain
Distance from station: O 198km
aktuell: 06/02/2023 23:00
teilweise bewölkt
teilweise bewölkt
 Wind von varies
Wind: varies 2 km/h
Temperatur: 8°C
Taupunkt: 4°C
Luftfeuchte: 76%
Luftdruck: 1020 hPa
Clouds: teilweise bewölkt
Visibility: 10 km
Cloud details: teilweise bewölkt 1311 m
2023/02/06 22:00 LEGR 062200Z VRB01KT 9999 SCT043 08/04 Q1020
LEAM - Almería, Spain
Distance from station: O 326km
aktuell: 06/02/2023 23:00
geschlossene Wolkendecke
geschlossene Wolkendecke
 Wind von NO
Wind: NO 24 km/h
Temperatur: 12°C
Taupunkt: 7°C
Luftfeuchte: 72%
Luftdruck: 1022 hPa
Clouds: geschlossene Wolkendecke
Visibility: 10 km
Cloud details: stark bewölkt 1250 m
geschlossene Wolkendecke 1524 m
2023/02/06 22:00 LEAM 062200Z AUTO 04013KT 010V070 9999 BKN041 OVC050 12/07 Q1022
LEMD - Madrid/Barajas, Spain
Distance from station: NNO 402km
aktuell: 06/02/2023 23:00
stark bewölkt
stark bewölkt
 Wind von N
Wind: N 6 km/h
Temperatur: 6°C
Taupunkt: -1°C
Luftfeuchte: 61%
Luftdruck: 1024 hPa
Clouds: stark bewölkt
Visibility: 10 km
Cloud details: stark bewölkt 2286 m
2023/02/06 22:00 LEMD 062200Z 35003KT 9999 BKN075 06/M01 Q1024 NOSIG
 
LEVD - Valladolid, Spain
Distance from station: N 492km
aktuell: 06/02/2023 23:00
klar
klar
 Wind von ONO
Wind: ONO 28 km/h
Temperatur: 1°C
Wind Chill: -5°C
Taupunkt: -2°C
Luftfeuchte: 81%
Luftdruck: 1023 hPa
Zusammenfassung: klar
Visibility: greater than 10 km
2023/02/06 22:00 LEVD 062200Z AUTO 07015KT CAVOK 01/M02 Q1023
LEBL - Barcelona, Spain
Distance from station: NO 816km
aktuell: 06/02/2023 23:00
Few Clouds
Few Clouds
 Wind von NO
Wind: NO 24 km/h
Temperatur: 10°C
Wind Chill: 7°C
Taupunkt: -1°C
Luftfeuchte: 47%
Luftdruck: 1026 hPa
Clouds: Few Clouds
Visibility: 10 km
Cloud details: Few Clouds 1524 m
2023/02/06 22:00 LEBL 062200Z 04013KT 9999 FEW050 10/M01 Q1026 NOSIG
LEVC - Valencia, Spain
Distance from station: ONO 535km
aktuell: 06/02/2023 23:00
sehr leichter Niederschlag, stark bewölkt
sehr leichter Niederschlag, stark bewölkt
 Wind von NNO
Wind: NNO 15 km/h
Temperatur: 9°C
Wind Chill: 7°C
Taupunkt: 5°C
Luftfeuchte: 76%
Luftdruck: 1026 hPa
Zusammenfassung: sehr leichter Niederschlag
Clouds: stark bewölkt
Visibility: 10 km
Cloud details: stark bewölkt 975 m
2023/02/06 22:00 LEVC 062200Z 03008KT 350V070 9999 -RA BKN032 09/05 Q1026 NOSIG